Time;durP1;ratioP1;P1;durP2;ratioP2;P2;SDS_P1;SDS_P2;PMS_P1;PMS_P2;Temp;Humidity;BMP_temperature;BMP_pressure;BME280_temperature;BME280_humidity;BME280_pressure;Samples;Min_cycle;Max_cycle;Signal;HPM_P1;HPM_P2
2022/06/30 00:02:22;;;;;;;10.07;2.67;;;;;;;;;;6277162;22;20000;-72
2022/06/30 00:04:47;;;;;;;16.55;3.08;;;;;;;;;;6277433;22;19995;-72
2022/06/30 00:07:13;;;;;;;10.98;2.90;;;;;;;;;;6276923;22;20006;-72
2022/06/30 00:09:40;;;;;;;5.72;2.50;;;;;;;;;;6277025;22;20015;-72
2022/06/30 00:12:05;;;;;;;10.18;2.47;;;;;;;;;;6276890;22;19988;-72
2022/06/30 00:14:30;;;;;;;11.35;2.85;;;;;;;;;;6277007;22;20011;-72
2022/06/30 00:16:55;;;;;;;13.05;2.90;;;;;;;;;;6276565;22;20066;-72
2022/06/30 00:19:21;;;;;;;10.07;2.58;;;;;;;;;;6277025;22;19991;-72
2022/06/30 00:21:46;;;;;;;11.68;2.67;;;;;;;;;;6276800;22;20015;-72
2022/06/30 00:24:11;;;;;;;11.82;2.90;;;;;;;;;;6276971;22;20007;-72
2022/06/30 00:26:36;;;;;;;16.33;3.20;;;;;;;;;;6277010;22;20044;-72
2022/06/30 00:29:02;;;;;;;22.15;2.95;;;;;;;;;;6276432;22;20011;-72
2022/06/30 00:31:27;;;;;;;17.10;3.00;;;;;;;;;;6276424;22;20003;-72
2022/06/30 00:33:52;;;;;;;15.95;3.53;;;;;;;;;;6276872;22;19991;-72
2022/06/30 00:36:17;;;;;;;18.63;3.65;;;;;;;;;;6276776;22;20006;-71
2022/06/30 00:38:43;;;;;;;7.38;2.67;;;;;;;;;;6276431;22;20002;-72
2022/06/30 00:41:10;;;;;;;7.45;3.15;;;;;;;;;;6277075;22;20016;-72
2022/06/30 00:43:42;;;;;;;23.92;4.07;;;;;;;;;;6277039;22;20082;-72
2022/06/30 00:46:07;;;;;;;16.52;3.47;;;;;;;;;;6276382;22;20003;-72
2022/06/30 00:48:34;;;;;;;12.50;3.63;;;;;;;;;;6276683;22;20042;-72
2022/06/30 00:50:59;;;;;;;16.40;3.65;;;;;;;;;;6276632;22;20078;-72
2022/06/30 00:53:25;;;;;;;12.07;3.00;;;;;;;;;;6276819;22;20421;-72
2022/06/30 00:55:51;;;;;;;14.32;3.30;;;;;;;;;;6277061;22;19995;-72
2022/06/30 00:58:17;;;;;;;9.45;3.20;;;;;;;;;;6276748;22;19995;-72
2022/06/30 01:00:43;;;;;;;10.65;2.83;;;;;;;;;;6276676;22;20010;-72
2022/06/30 01:03:09;;;;;;;18.25;3.90;;;;;;;;;;6276730;22;20000;-72
2022/06/30 01:05:35;;;;;;;21.08;4.18;;;;;;;;;;6277055;22;20004;-72
2022/06/30 01:08:00;;;;;;;13.65;3.75;;;;;;;;;;6276504;22;20022;-72
2022/06/30 01:13:10;;;;;;;12.73;3.55;;;;;;;;;;6276351;22;20459;-72
2022/06/30 01:15:35;;;;;;;12.70;3.42;;;;;;;;;;6276135;22;20007;-72
2022/06/30 01:18:00;;;;;;;17.65;3.80;;;;;;;;;;6276117;22;20004;-70
2022/06/30 01:20:27;;;;;;;16.73;3.35;;;;;;;;;;6276679;22;19998;-70
2022/06/30 01:22:52;;;;;;;13.10;3.10;;;;;;;;;;6276523;22;19996;-70
2022/06/30 01:25:17;;;;;;;12.70;3.33;;;;;;;;;;6276294;22;20338;-70
2022/06/30 01:27:42;;;;;;;8.07;2.95;;;;;;;;;;6276525;22;20372;-71
2022/06/30 01:30:08;;;;;;;11.90;3.58;;;;;;;;;;6278582;22;20309;-71
2022/06/30 01:32:33;;;;;;;13.73;3.22;;;;;;;;;;6278007;22;20003;-71
2022/06/30 01:34:59;;;;;;;27.20;4.00;;;;;;;;;;6278503;22;19992;-71
2022/06/30 01:37:25;;;;;;;19.35;3.80;;;;;;;;;;6278289;22;20088;-71
2022/06/30 01:39:50;;;;;;;10.95;3.30;;;;;;;;;;6278263;22;20012;-71
2022/06/30 01:42:16;;;;;;;13.70;3.30;;;;;;;;;;6278029;22;20478;-71
2022/06/30 01:44:41;;;;;;;9.20;3.35;;;;;;;;;;6278528;22;20027;-71
2022/06/30 01:47:07;;;;;;;12.75;3.58;;;;;;;;;;6278242;22;20008;-71
2022/06/30 01:49:32;;;;;;;13.05;3.25;;;;;;;;;;6278854;22;20096;-70
2022/06/30 01:51:57;;;;;;;10.07;3.13;;;;;;;;;;6278351;22;20000;-70
2022/06/30 01:54:23;;;;;;;9.80;3.35;;;;;;;;;;6278426;22;20023;-70
2022/06/30 01:56:48;;;;;;;19.92;3.67;;;;;;;;;;6278394;22;19992;-70
2022/06/30 01:59:14;;;;;;;17.13;3.20;;;;;;;;;;6278767;22;20351;-70
2022/06/30 02:01:39;;;;;;;13.82;3.45;;;;;;;;;;6278134;22;20090;-70
2022/06/30 02:06:48;;;;;;;10.15;3.20;;;;;;;;;;6277868;22;20077;-70
2022/06/30 02:09:14;;;;;;;10.75;3.03;;;;;;;;;;6277725;22;20467;-70
2022/06/30 02:11:39;;;;;;;10.95;2.83;;;;;;;;;;6277805;22;20086;-70
2022/06/30 02:14:04;;;;;;;9.07;3.15;;;;;;;;;;6277811;22;19992;-70
2022/06/30 02:16:30;;;;;;;12.88;2.85;;;;;;;;;;6277994;22;20008;-70
2022/06/30 02:18:55;;;;;;;14.23;3.55;;;;;;;;;;6277751;22;20000;-70
2022/06/30 02:21:20;;;;;;;8.93;3.30;;;;;;;;;;6278536;22;20054;-70
2022/06/30 02:23:46;;;;;;;14.23;3.08;;;;;;;;;;6277797;22;20086;-70
2022/06/30 02:26:11;;;;;;;11.52;3.10;;;;;;;;;;6277766;22;19999;-70
2022/06/30 02:28:36;;;;;;;11.95;3.03;;;;;;;;;;6277852;22;20011;-71
2022/06/30 02:31:02;;;;;;;11.93;3.50;;;;;;;;;;6277915;22;20054;-70
2022/06/30 02:33:27;;;;;;;18.83;4.18;;;;;;;;;;6277684;22;20007;-70
2022/06/30 02:35:52;;;;;;;15.48;3.33;;;;;;;;;;6277917;22;20026;-70
2022/06/30 02:38:17;;;;;;;8.30;3.03;;;;;;;;;;6278005;22;20434;-70
2022/06/30 02:40:43;;;;;;;15.75;2.88;;;;;;;;;;6277459;22;20085;-71
2022/06/30 02:43:08;;;;;;;5.75;2.20;;;;;;;;;;6277896;22;20003;-71
2022/06/30 02:45:33;;;;;;;12.43;2.42;;;;;;;;;;6277749;22;20009;-71
2022/06/30 02:47:59;;;;;;;13.15;2.70;;;;;;;;;;6277651;22;20098;-71
2022/06/30 02:50:24;;;;;;;11.38;2.60;;;;;;;;;;6250966;22;20071;-71
2022/06/30 02:52:49;;;;;;;92.78;4.88;;;;;;;;;;6277382;22;20004;-70
2022/06/30 02:55:15;;;;;;;9.05;2.45;;;;;;;;;;6278177;22;20027;-70
2022/06/30 02:57:40;;;;;;;13.18;2.97;;;;;;;;;;6277454;22;19999;-71
2022/06/30 03:00:07;;;;;;;16.95;3.70;;;;;;;;;;6277720;22;20034;-70
2022/06/30 03:02:32;;;;;;;12.20;2.50;;;;;;;;;;6277741;22;20010;-71
2022/06/30 03:04:57;;;;;;;9.90;2.40;;;;;;;;;;6277643;22;19992;-71
2022/06/30 03:07:23;;;;;;;16.35;2.67;;;;;;;;;;6277710;22;20424;-71
2022/06/30 03:09:48;;;;;;;16.55;2.50;;;;;;;;;;6277410;22;20011;-71
2022/06/30 03:12:13;;;;;;;9.77;2.08;;;;;;;;;;6277730;22;19999;-71
2022/06/30 03:14:38;;;;;;;12.82;2.33;;;;;;;;;;6277398;22;20008;-71
2022/06/30 03:17:04;;;;;;;10.90;2.42;;;;;;;;;;6277666;22;20003;-71
2022/06/30 03:19:29;;;;;;;9.23;2.35;;;;;;;;;;6277162;22;20003;-71
2022/06/30 03:21:54;;;;;;;12.73;2.95;;;;;;;;;;6277885;22;20003;-71
2022/06/30 03:24:20;;;;;;;10.48;2.50;;;;;;;;;;6277351;22;20011;-71
2022/06/30 03:26:46;;;;;;;8.30;2.75;;;;;;;;;;6277650;22;20371;-70
2022/06/30 03:29:11;;;;;;;11.27;2.75;;;;;;;;;;6277179;22;20015;-70
2022/06/30 03:31:37;;;;;;;12.45;2.60;;;;;;;;;;6250489;22;20083;-70
2022/06/30 03:34:03;;;;;;;10.90;2.60;;;;;;;;;;6277273;22;20041;-70
2022/06/30 03:36:28;;;;;;;7.55;2.58;;;;;;;;;;6277473;22;20254;-70
2022/06/30 03:38:53;;;;;;;6.63;2.65;;;;;;;;;;6276915;22;20023;-70
2022/06/30 03:41:18;;;;;;;16.80;2.67;;;;;;;;;;6249977;22;20046;-70
2022/06/30 03:43:44;;;;;;;16.60;3.17;;;;;;;;;;6276898;22;20424;-69
2022/06/30 03:46:09;;;;;;;16.25;3.05;;;;;;;;;;6276974;22;20006;-71
2022/06/30 03:48:35;;;;;;;16.25;3.30;;;;;;;;;;6277282;22;19999;-70
2022/06/30 03:51:01;;;;;;;11.05;2.70;;;;;;;;;;6277218;22;20102;-70
2022/06/30 03:53:27;;;;;;;11.63;2.90;;;;;;;;;;6277327;22;19999;-70
2022/06/30 03:55:52;;;;;;;12.98;3.22;;;;;;;;;;6277143;22;20418;-70
2022/06/30 03:58:17;;;;;;;11.40;2.95;;;;;;;;;;6277141;22;19995;-70
2022/06/30 04:00:42;;;;;;;7.72;2.83;;;;;;;;;;6277127;22;20053;-70
2022/06/30 04:03:08;;;;;;;7.80;2.60;;;;;;;;;;6277177;22;20079;-71
2022/06/30 04:05:33;;;;;;;18.13;2.90;;;;;;;;;;6276991;22;20011;-70
2022/06/30 04:07:58;;;;;;;21.20;2.67;;;;;;;;;;6276986;22;20008;-70
2022/06/30 04:10:23;;;;;;;21.38;4.30;;;;;;;;;;6276990;22;20027;-71
2022/06/30 04:12:49;;;;;;;7.95;2.55;;;;;;;;;;6277110;22;20375;-70
2022/06/30 04:15:14;;;;;;;28.40;3.15;;;;;;;;;;6276763;22;20035;-70
2022/06/30 04:17:39;;;;;;;32.97;3.05;;;;;;;;;;6277118;22;20366;-70
2022/06/30 04:20:05;;;;;;;14.45;2.72;;;;;;;;;;6276935;22;20004;-70
2022/06/30 04:22:31;;;;;;;31.15;2.90;;;;;;;;;;6276871;22;20004;-70
2022/06/30 04:24:56;;;;;;;18.05;3.00;;;;;;;;;;6276922;22;20006;-70
2022/06/30 04:27:22;;;;;;;12.15;2.72;;;;;;;;;;6276978;22;20006;-70
2022/06/30 04:29:47;;;;;;;11.93;2.55;;;;;;;;;;6276669;22;20065;-70
2022/06/30 04:34:56;;;;;;;8.70;2.55;;;;;;;;;;6276480;22;20022;-70
2022/06/30 04:37:21;;;;;;;86.97;5.38;;;;;;;;;;6276939;22;20031;-70
2022/06/30 04:39:46;;;;;;;64.47;4.43;;;;;;;;;;6276755;22;20037;-70
2022/06/30 04:42:12;;;;;;;53.78;4.43;;;;;;;;;;6276663;22;20074;-70
2022/06/30 04:44:37;;;;;;;12.20;2.50;;;;;;;;;;6276866;22;19996;-70
2022/06/30 04:47:02;;;;;;;28.85;2.85;;;;;;;;;;6276197;22;20047;-70
2022/06/30 04:49:27;;;;;;;20.17;2.30;;;;;;;;;;6276730;22;20065;-70
2022/06/30 04:51:53;;;;;;;58.75;2.95;;;;;;;;;;6277140;22;20027;-70
2022/06/30 04:54:18;;;;;;;40.42;3.35;;;;;;;;;;6276788;22;20403;-70
2022/06/30 04:56:43;;;;;;;57.88;3.50;;;;;;;;;;6276632;22;20304;-70
2022/06/30 04:59:08;;;;;;;26.88;2.55;;;;;;;;;;6276528;22;20011;-70
2022/06/30 05:01:34;;;;;;;44.22;2.80;;;;;;;;;;6276761;22;20000;-70
2022/06/30 05:03:59;;;;;;;40.97;3.75;;;;;;;;;;6277425;22;20074;-70
2022/06/30 05:06:24;;;;;;;30.98;2.28;;;;;;;;;;6278842;22;20006;-70
2022/06/30 05:08:50;;;;;;;34.30;2.60;;;;;;;;;;6278525;22;20466;-70
2022/06/30 05:11:15;;;;;;;54.10;2.90;;;;;;;;;;6278361;22;20003;-71
2022/06/30 05:13:40;;;;;;;26.25;1.67;;;;;;;;;;6278733;22;20000;-70
2022/06/30 05:16:05;;;;;;;23.85;1.75;;;;;;;;;;6278690;22;20436;-70
2022/06/30 05:18:31;;;;;;;11.45;1.20;;;;;;;;;;6279233;22;20118;-70
2022/06/30 05:20:56;;;;;;;28.63;1.63;;;;;;;;;;6278957;22;20057;-70
2022/06/30 05:23:21;;;;;;;12.25;1.30;;;;;;;;;;6278612;22;20003;-70
2022/06/30 05:28:31;;;;;;;5.72;1.40;;;;;;;;;;6278166;22;20392;-70
2022/06/30 05:30:56;;;;;;;7.63;1.95;;;;;;;;;;6278458;22;20039;-70
2022/06/30 05:33:22;;;;;;;3.88;1.55;;;;;;;;;;6278574;22;20023;-70
2022/06/30 05:35:48;;;;;;;4.03;1.60;;;;;;;;;;6278594;22;20002;-70
2022/06/30 05:38:13;;;;;;;9.10;1.25;;;;;;;;;;6278540;22;20057;-71
2022/06/30 05:40:39;;;;;;;6.97;1.50;;;;;;;;;;6277961;22;20016;-70
2022/06/30 05:43:04;;;;;;;3.17;1.38;;;;;;;;;;6278453;22;20002;-71
2022/06/30 05:45:29;;;;;;;3.00;1.25;;;;;;;;;;6278448;22;20015;-70
2022/06/30 05:47:54;;;;;;;7.70;1.67;;;;;;;;;;6278261;22;20003;-71
2022/06/30 05:50:20;;;;;;;3.83;1.20;;;;;;;;;;6278462;22;19991;-71
2022/06/30 05:52:46;;;;;;;4.00;1.55;;;;;;;;;;6278516;22;20075;-70
2022/06/30 05:55:12;;;;;;;7.05;1.42;;;;;;;;;;6278696;22;20027;-70
2022/06/30 05:57:53;;;;;;;3.03;1.23;;;;;;;;;;6278550;22;19999;-70
2022/06/30 06:00:19;;;;;;;2.85;1.20;;;;;;;;;;6278338;22;20083;-70
2022/06/30 06:02:45;;;;;;;4.35;1.20;;;;;;;;;;6278348;22;19988;-71
2022/06/30 06:05:11;;;;;;;5.07;1.10;;;;;;;;;;6278360;22;20044;-71
2022/06/30 06:07:36;;;;;;;8.25;1.52;;;;;;;;;;6278184;22;20074;-72
2022/06/30 06:10:01;;;;;;;4.65;1.25;;;;;;;;;;6278125;22;20090;-72
2022/06/30 06:12:26;;;;;;;2.85;1.17;;;;;;;;;;6278257;22;20008;-72
2022/06/30 06:14:52;;;;;;;5.13;1.50;;;;;;;;;;6277593;22;19996;-72
2022/06/30 06:17:17;;;;;;;5.63;1.20;;;;;;;;;;6278113;22;19995;-72
2022/06/30 06:19:42;;;;;;;5.05;1.23;;;;;;;;;;6278110;22;20006;-72
2022/06/30 06:22:07;;;;;;;4.03;1.15;;;;;;;;;;6277704;22;20038;-72
2022/06/30 06:24:33;;;;;;;4.45;1.30;;;;;;;;;;6277688;22;20018;-72
2022/06/30 06:26:58;;;;;;;5.80;1.40;;;;;;;;;;6277893;22;20000;-72
2022/06/30 06:29:24;;;;;;;6.38;1.50;;;;;;;;;;6277839;22;20023;-72
2022/06/30 06:31:49;;;;;;;6.28;1.70;;;;;;;;;;6277562;22;20008;-72
2022/06/30 06:34:14;;;;;;;7.35;1.40;;;;;;;;;;6278064;22;20008;-73
2022/06/30 06:36:39;;;;;;;3.90;1.40;;;;;;;;;;6277785;22;20010;-72
2022/06/30 06:39:05;;;;;;;4.72;1.50;;;;;;;;;;6277483;22;20336;-73
2022/06/30 06:41:30;;;;;;;4.65;1.40;;;;;;;;;;6277997;22;20007;-72
2022/06/30 06:43:55;;;;;;;4.88;1.50;;;;;;;;;;6277895;22;20004;-72
2022/06/30 06:46:26;;;;;;;4.40;1.55;;;;;;;;;;6277821;22;20057;-72
2022/06/30 06:48:51;;;;;;;6.72;1.45;;;;;;;;;;6277757;22;20015;-72
2022/06/30 06:51:17;;;;;;;4.85;1.42;;;;;;;;;;6277744;22;20004;-72
2022/06/30 06:53:42;;;;;;;3.83;1.38;;;;;;;;;;6277786;22;20351;-72
2022/06/30 06:56:07;;;;;;;4.63;1.50;;;;;;;;;;6277553;22;20011;-72
2022/06/30 06:58:33;;;;;;;6.85;1.52;;;;;;;;;;6277644;22;20011;-72
2022/06/30 07:00:59;;;;;;;8.30;2.28;;;;;;;;;;6277763;22;20448;-72
2022/06/30 07:03:24;;;;;;;7.68;1.60;;;;;;;;;;6277751;22;20004;-72
2022/06/30 07:05:49;;;;;;;7.35;1.70;;;;;;;;;;6277292;22;20004;-72
2022/06/30 07:08:15;;;;;;;5.22;1.77;;;;;;;;;;6277685;22;20002;-72
2022/06/30 07:10:40;;;;;;;6.75;1.98;;;;;;;;;;6277662;22;20320;-72
2022/06/30 07:13:05;;;;;;;6.53;2.00;;;;;;;;;;6277732;22;20003;-72
2022/06/30 07:15:31;;;;;;;4.65;1.55;;;;;;;;;;6277458;22;19999;-72
2022/06/30 07:17:56;;;;;;;6.05;1.73;;;;;;;;;;6277884;22;20004;-72
2022/06/30 07:20:21;;;;;;;7.53;1.98;;;;;;;;;;6277358;22;20015;-72
2022/06/30 07:22:47;;;;;;;12.13;2.00;;;;;;;;;;6277467;22;20363;-71
2022/06/30 07:25:12;;;;;;;9.65;2.38;;;;;;;;;;6277485;22;20004;-71
2022/06/30 07:27:37;;;;;;;8.45;2.13;;;;;;;;;;6277266;22;20004;-72
2022/06/30 07:30:03;;;;;;;6.65;1.83;;;;;;;;;;6277435;22;19991;-72
2022/06/30 07:32:29;;;;;;;6.15;1.77;;;;;;;;;;6277549;22;20048;-72
2022/06/30 07:34:54;;;;;;;8.63;1.55;;;;;;;;;;6277394;22;20031;-72
2022/06/30 07:37:19;;;;;;;5.32;1.42;;;;;;;;;;6277146;22;19991;-72
2022/06/30 07:39:44;;;;;;;9.32;1.67;;;;;;;;;;6277077;22;20012;-72
2022/06/30 07:42:09;;;;;;;7.60;1.70;;;;;;;;;;6277286;22;20008;-72
2022/06/30 07:44:35;;;;;;;6.03;1.60;;;;;;;;;;6276965;22;20003;-72
2022/06/30 07:47:00;;;;;;;9.15;1.85;;;;;;;;;;6277259;22;20008;-72
2022/06/30 07:49:25;;;;;;;7.05;1.65;;;;;;;;;;6277148;22;20004;-72
2022/06/30 07:51:52;;;;;;;8.90;2.00;;;;;;;;;;6277006;22;19996;-72
2022/06/30 07:54:18;;;;;;;8.32;2.38;;;;;;;;;;6277405;22;20058;-73
2022/06/30 07:56:43;;;;;;;8.93;1.70;;;;;;;;;;6277164;22;20359;-72
2022/06/30 07:59:08;;;;;;;7.47;2.03;;;;;;;;;;6277132;22;20011;-72
2022/06/30 08:01:33;;;;;;;8.57;1.60;;;;;;;;;;6277049;22;20004;-72
2022/06/30 08:03:58;;;;;;;7.75;1.75;;;;;;;;;;6277104;22;20003;-72
2022/06/30 08:06:24;;;;;;;8.30;2.72;;;;;;;;;;6276969;22;20003;-72
2022/06/30 08:08:50;;;;;;;6.20;1.70;;;;;;;;;;6277060;22;20044;-72
2022/06/30 08:11:15;;;;;;;7.22;1.85;;;;;;;;;;6276960;22;20006;-73
2022/06/30 08:13:40;;;;;;;7.35;2.00;;;;;;;;;;6276906;22;20014;-72
2022/06/30 08:16:06;;;;;;;8.27;1.92;;;;;;;;;;6276909;22;20000;-72
2022/06/30 08:18:31;;;;;;;8.60;2.40;;;;;;;;;;6276940;22;20012;-71
2022/06/30 08:20:56;;;;;;;6.40;2.13;;;;;;;;;;6276655;22;19996;-71
2022/06/30 08:23:21;;;;;;;7.47;1.90;;;;;;;;;;6276809;22;20411;-70
2022/06/30 08:25:47;;;;;;;7.45;1.90;;;;;;;;;;6277134;22;20007;-71
2022/06/30 08:28:12;;;;;;;7.03;2.10;;;;;;;;;;6276797;22;20293;-71
2022/06/30 08:30:38;;;;;;;9.75;2.17;;;;;;;;;;6276812;22;20427;-71
2022/06/30 08:33:03;;;;;;;7.53;2.05;;;;;;;;;;6276684;22;19996;-71
2022/06/30 08:35:28;;;;;;;10.27;2.00;;;;;;;;;;6276739;22;19999;-71
2022/06/30 08:37:54;;;;;;;9.13;2.20;;;;;;;;;;6276226;22;20007;-71
2022/06/30 08:43:05;;;;;;;9.13;2.00;;;;;;;;;;6276316;22;20007;-71
2022/06/30 08:45:30;;;;;;;9.75;2.10;;;;;;;;;;6276315;22;20008;-71
2022/06/30 08:47:56;;;;;;;11.10;2.28;;;;;;;;;;6276353;22;19999;-71
2022/06/30 08:50:21;;;;;;;9.77;2.28;;;;;;;;;;6276214;22;20022;-71
2022/06/30 08:52:51;;;;;;;9.05;2.25;;;;;;;;;;6276134;22;20034;-71
2022/06/30 08:55:17;;;;;;;9.80;2.28;;;;;;;;;;6276758;22;19996;-71
2022/06/30 08:57:44;;;;;;;11.32;2.50;;;;;;;;;;6276437;22;20023;-71
2022/06/30 09:00:10;;;;;;;9.40;2.30;;;;;;;;;;6276486;22;20023;-72
2022/06/30 09:02:35;;;;;;;6.50;1.80;;;;;;;;;;6276368;22;19992;-72
2022/06/30 09:05:01;;;;;;;7.32;2.38;;;;;;;;;;6276629;22;20030;-72
2022/06/30 09:07:26;;;;;;;6.45;1.77;;;;;;;;;;6276525;22;20003;-71
2022/06/30 09:09:52;;;;;;;7.43;2.35;;;;;;;;;;6276323;22;20003;-72
2022/06/30 09:12:18;;;;;;;8.93;2.30;;;;;;;;;;6276549;22;20003;-72
2022/06/30 09:14:46;;;;;;;7.18;2.13;;;;;;;;;;6276172;22;20436;-71
2022/06/30 09:17:22;;;;;;;9.00;2.20;;;;;;;;;;6276445;22;20063;-72
2022/06/30 09:19:58;;;;;;;5.45;1.95;;;;;;;;;;6276373;22;20095;-71
2022/06/30 09:22:26;;;;;;;7.93;2.25;;;;;;;;;;6276567;22;20063;-72
2022/06/30 09:25:11;;;;;;;6.60;1.88;;;;;;;;;;6276541;22;20056;-72
2022/06/30 09:27:38;;;;;;;9.02;2.30;;;;;;;;;;6276225;22;20000;-72
2022/06/30 09:30:09;;;;;;;10.90;2.05;;;;;;;;;;6276558;22;20003;-72
2022/06/30 09:33:04;;;;;;;6.75;1.90;;;;;;;;;;6276457;22;20082;-72
2022/06/30 09:35:30;;;;;;;8.65;1.88;;;;;;;;;;6249619;22;20375;-72
2022/06/30 09:38:06;;;;;;;11.13;2.13;;;;;;;;;;6276150;22;20000;-72
2022/06/30 09:40:33;;;;;;;5.00;1.75;;;;;;;;;;6276210;22;20031;-72
2022/06/30 09:42:59;;;;;;;9.45;1.80;;;;;;;;;;6276238;22;20012;-72
2022/06/30 09:45:33;;;;;;;6.03;2.00;;;;;;;;;;6276245;22;19999;-72
2022/06/30 09:47:58;;;;;;;4.93;1.70;;;;;;;;;;6276199;22;20084;-72
2022/06/30 09:50:24;;;;;;;5.40;1.60;;;;;;;;;;6277675;22;20395;-72
2022/06/30 09:53:08;;;;;;;5.43;1.60;;;;;;;;;;6277844;22;20057;-72
2022/06/30 09:55:38;;;;;;;5.35;1.80;;;;;;;;;;6277724;22;20015;-72
2022/06/30 09:58:03;;;;;;;7.53;1.77;;;;;;;;;;6278158;22;20046;-72
2022/06/30 10:00:28;;;;;;;7.82;1.63;;;;;;;;;;6278123;22;20004;-72
2022/06/30 10:02:54;;;;;;;5.67;1.73;;;;;;;;;;6278006;22;19996;-72
2022/06/30 10:05:19;;;;;;;9.70;1.73;;;;;;;;;;6278241;22;20236;-72
2022/06/30 10:07:45;;;;;;;7.20;1.77;;;;;;;;;;6277831;22;19995;-72
2022/06/30 10:10:15;;;;;;;7.78;1.83;;;;;;;;;;6278134;22;20049;-72
2022/06/30 10:12:41;;;;;;;7.82;1.88;;;;;;;;;;6277914;22;20007;-72
2022/06/30 10:15:08;;;;;;;7.95;2.03;;;;;;;;;;6278084;22;20286;-72
2022/06/30 10:17:34;;;;;;;7.30;1.83;;;;;;;;;;6277948;22;20006;-72
2022/06/30 10:19:59;;;;;;;6.93;1.60;;;;;;;;;;6278043;22;20082;-72
2022/06/30 10:22:26;;;;;;;5.57;1.70;;;;;;;;;;6278032;22;20058;-71
2022/06/30 10:24:52;;;;;;;6.25;1.70;;;;;;;;;;6277794;22;20221;-72
2022/06/30 10:27:18;;;;;;;4.70;1.50;;;;;;;;;;6277950;22;20006;-71
2022/06/30 10:29:57;;;;;;;6.30;1.70;;;;;;;;;;6277370;22;20428;-72
2022/06/30 10:32:35;;;;;;;8.38;1.95;;;;;;;;;;6277631;22;20475;-72
2022/06/30 10:35:06;;;;;;;5.32;1.58;;;;;;;;;;6277937;22;20004;-72
2022/06/30 10:37:35;;;;;;;6.28;1.75;;;;;;;;;;6277803;22;20000;-71
2022/06/30 10:40:06;;;;;;;4.13;1.58;;;;;;;;;;6277514;22;20019;-71
2022/06/30 10:42:40;;;;;;;6.78;1.80;;;;;;;;;;6277535;22;19992;-71
2022/06/30 10:45:05;;;;;;;6.45;1.73;;;;;;;;;;6277784;22;20008;-72
2022/06/30 10:47:31;;;;;;;5.15;1.42;;;;;;;;;;6277763;22;20053;-71
2022/06/30 10:49:56;;;;;;;8.77;1.35;;;;;;;;;;6277925;22;20056;-71
2022/06/30 10:52:23;;;;;;;5.00;1.52;;;;;;;;;;6277603;22;20006;-73
2022/06/30 10:54:49;;;;;;;5.72;1.30;;;;;;;;;;6277262;22;20004;-73
2022/06/30 10:57:16;;;;;;;5.00;1.17;;;;;;;;;;6277429;22;19995;-73
2022/06/30 10:59:41;;;;;;;6.35;1.27;;;;;;;;;;6278023;22;20102;-72
2022/06/30 11:02:07;;;;;;;7.30;1.45;;;;;;;;;;6277355;22;20035;-72
2022/06/30 11:04:32;;;;;;;3.07;0.83;;;;;;;;;;6277546;22;20045;-72
2022/06/30 11:07:00;;;;;;;4.63;1.42;;;;;;;;;;6277513;22;20259;-72
2022/06/30 11:09:43;;;;;;;3.63;1.10;;;;;;;;;;6277736;22;20019;-72
2022/06/30 11:12:09;;;;;;;6.15;1.10;;;;;;;;;;6277218;22;20462;-73
2022/06/30 11:14:34;;;;;;;3.70;0.98;;;;;;;;;;6277235;22;20003;-72
2022/06/30 11:17:00;;;;;;;4.13;0.88;;;;;;;;;;6277440;22;19992;-72
2022/06/30 11:19:27;;;;;;;5.70;1.23;;;;;;;;;;6277468;22;20427;-72
2022/06/30 11:21:52;;;;;;;2.35;0.70;;;;;;;;;;6277231;22;19999;-72
2022/06/30 11:24:20;;;;;;;4.43;1.08;;;;;;;;;;6277333;22;20369;-73
2022/06/30 11:29:31;;;;;;;2.72;0.80;;;;;;;;;;6276920;22;20023;-73
2022/06/30 11:32:00;;;;;;;4.28;0.98;;;;;;;;;;6276807;22;20003;-72
2022/06/30 11:34:25;;;;;;;3.58;1.02;;;;;;;;;;6277305;22;20082;-72
2022/06/30 11:36:52;;;;;;;3.95;0.95;;;;;;;;;;6277116;22;20088;-72
2022/06/30 11:39:18;;;;;;;4.07;1.42;;;;;;;;;;6277133;22;20409;-72
2022/06/30 11:41:56;;;;;;;5.07;0.90;;;;;;;;;;6277210;22;20061;-72
2022/06/30 11:44:28;;;;;;;5.93;0.90;;;;;;;;;;6276980;22;20020;-72
2022/06/30 11:46:55;;;;;;;2.72;0.85;;;;;;;;;;6276973;22;20041;-73
2022/06/30 11:49:22;;;;;;;5.57;0.90;;;;;;;;;;6276799;22;20008;-72
2022/06/30 11:51:47;;;;;;;5.05;0.73;;;;;;;;;;6277112;22;20041;-72
2022/06/30 11:54:13;;;;;;;2.78;0.73;;;;;;;;;;6277180;22;20004;-72
2022/06/30 11:56:50;;;;;;;3.08;0.93;;;;;;;;;;6276760;22;19995;-72
2022/06/30 11:59:16;;;;;;;2.90;0.77;;;;;;;;;;6250084;22;20332;-72
2022/06/30 12:01:41;;;;;;;3.83;1.30;;;;;;;;;;6276784;22;20000;-72
2022/06/30 12:04:16;;;;;;;3.42;1.27;;;;;;;;;;6277186;22;20045;-72
2022/06/30 12:06:42;;;;;;;4.28;0.90;;;;;;;;;;6276380;22;20366;-72
2022/06/30 12:09:07;;;;;;;4.95;1.05;;;;;;;;;;6276899;22;20053;-73
2022/06/30 12:11:34;;;;;;;5.38;1.20;;;;;;;;;;6276576;22;19996;-72
2022/06/30 12:14:00;;;;;;;4.75;1.00;;;;;;;;;;6249476;22;20027;-72
2022/06/30 12:16:25;;;;;;;2.15;0.73;;;;;;;;;;6276665;22;20003;-72
2022/06/30 12:18:50;;;;;;;4.45;1.00;;;;;;;;;;6276762;22;20006;-72
2022/06/30 12:21:16;;;;;;;2.25;0.80;;;;;;;;;;6277306;22;20000;-72
2022/06/30 12:23:42;;;;;;;3.83;0.85;;;;;;;;;;6276952;22;20026;-72
2022/06/30 12:26:08;;;;;;;3.05;1.10;;;;;;;;;;6276930;22;19999;-72
2022/06/30 12:28:54;;;;;;;3.28;0.80;;;;;;;;;;6276838;22;20030;-72
2022/06/30 12:31:26;;;;;;;3.92;0.90;;;;;;;;;;6277056;22;20003;-72
2022/06/30 12:33:53;;;;;;;4.03;1.00;;;;;;;;;;6276670;22;20027;-72
2022/06/30 12:36:18;;;;;;;6.80;1.10;;;;;;;;;;6276865;22;20035;-72
2022/06/30 12:38:44;;;;;;;2.50;0.70;;;;;;;;;;6276467;22;20002;-73
2022/06/30 12:41:11;;;;;;;4.10;0.82;;;;;;;;;;6277163;22;20008;-72
2022/06/30 12:43:50;;;;;;;3.05;0.88;;;;;;;;;;6276491;22;20086;-72
2022/06/30 12:46:16;;;;;;;4.15;0.90;;;;;;;;;;6276412;22;20057;-72
2022/06/30 12:48:44;;;;;;;1.67;0.70;;;;;;;;;;6276480;22;20000;-73
2022/06/30 12:51:10;;;;;;;3.53;0.80;;;;;;;;;;6276935;22;19996;-72
2022/06/30 12:53:38;;;;;;;2.33;0.80;;;;;;;;;;6276394;22;20023;-72
2022/06/30 12:56:13;;;;;;;3.80;0.80;;;;;;;;;;6276924;22;20014;-72
2022/06/30 12:58:47;;;;;;;3.30;0.70;;;;;;;;;;6276563;22;20004;-72
2022/06/30 13:01:14;;;;;;;2.55;0.77;;;;;;;;;;6276516;22;20007;-72
2022/06/30 13:03:50;;;;;;;8.48;0.88;;;;;;;;;;6276697;22;20004;-72
2022/06/30 13:06:16;;;;;;;2.38;0.73;;;;;;;;;;6276334;22;20309;-72
2022/06/30 13:08:43;;;;;;;2.45;0.70;;;;;;;;;;6276704;22;20038;-72
2022/06/30 13:11:11;;;;;;;2.40;1.00;;;;;;;;;;6276156;22;20010;-72
2022/06/30 13:13:36;;;;;;;2.55;0.70;;;;;;;;;;6276373;22;20411;-72
2022/06/30 13:16:02;;;;;;;5.68;0.95;;;;;;;;;;6276823;22;20006;-72
2022/06/30 13:18:27;;;;;;;1.35;0.60;;;;;;;;;;6276560;22;20003;-73
2022/06/30 13:20:52;;;;;;;2.60;0.68;;;;;;;;;;6276125;22;20006;-72
2022/06/30 13:23:17;;;;;;;2.63;0.70;;;;;;;;;;6276527;22;20000;-72
2022/06/30 13:25:42;;;;;;;3.90;0.80;;;;;;;;;;6278230;22;20091;-72
2022/06/30 13:28:08;;;;;;;2.42;0.70;;;;;;;;;;6278656;22;20078;-72
2022/06/30 13:30:33;;;;;;;1.65;0.60;;;;;;;;;;6278211;22;20004;-73
2022/06/30 13:32:59;;;;;;;3.72;0.60;;;;;;;;;;6278455;22;20061;-72
2022/06/30 13:35:24;;;;;;;2.30;0.68;;;;;;;;;;6278429;22;20312;-72
2022/06/30 13:37:50;;;;;;;1.65;0.45;;;;;;;;;;6278453;22;20000;-72
2022/06/30 13:40:15;;;;;;;4.20;0.93;;;;;;;;;;6278368;22;20062;-72
2022/06/30 13:42:40;;;;;;;2.30;0.70;;;;;;;;;;6278477;22;20392;-72
2022/06/30 13:45:06;;;;;;;1.45;0.60;;;;;;;;;;6278314;22;20079;-72
2022/06/30 13:47:32;;;;;;;2.45;0.68;;;;;;;;;;6278360;22;20105;-72
2022/06/30 13:49:58;;;;;;;2.97;0.77;;;;;;;;;;6278264;22;20346;-71
2022/06/30 13:52:23;;;;;;;2.13;0.68;;;;;;;;;;6278344;22;20414;-71
2022/06/30 13:54:49;;;;;;;3.53;0.85;;;;;;;;;;6277759;22;20039;-72
2022/06/30 13:57:14;;;;;;;2.17;0.70;;;;;;;;;;6278299;22;19992;-72
2022/06/30 13:59:39;;;;;;;4.05;0.70;;;;;;;;;;6278122;22;20042;-72
2022/06/30 14:02:05;;;;;;;3.97;0.73;;;;;;;;;;6278224;22;20003;-72
2022/06/30 14:04:30;;;;;;;1.80;0.50;;;;;;;;;;6277924;22;19992;-72
2022/06/30 14:06:56;;;;;;;5.00;0.55;;;;;;;;;;6277999;22;20003;-72
2022/06/30 14:09:21;;;;;;;4.22;0.60;;;;;;;;;;6278058;22;20000;-72
2022/06/30 14:11:47;;;;;;;2.08;0.60;;;;;;;;;;6278046;22;19999;-72
2022/06/30 14:14:12;;;;;;;2.97;0.70;;;;;;;;;;6278112;22;20067;-72
2022/06/30 14:16:38;;;;;;;3.10;0.95;;;;;;;;;;6277897;22;20015;-73
2022/06/30 14:19:03;;;;;;;6.20;0.95;;;;;;;;;;6277968;22;20007;-72
2022/06/30 14:21:31;;;;;;;3.10;0.95;;;;;;;;;;6278031;22;20004;-72
2022/06/30 14:23:56;;;;;;;5.75;1.20;;;;;;;;;;6277887;22;19999;-72
2022/06/30 14:26:21;;;;;;;6.22;1.08;;;;;;;;;;6277975;22;20002;-71
2022/06/30 14:28:47;;;;;;;5.80;1.30;;;;;;;;;;6277753;22;20006;-72
2022/06/30 14:31:12;;;;;;;2.92;1.05;;;;;;;;;;6278092;22;20015;-71
2022/06/30 14:33:37;;;;;;;2.55;0.98;;;;;;;;;;6277888;22;20007;-72
2022/06/30 14:36:03;;;;;;;5.78;1.10;;;;;;;;;;6277308;22;20035;-71
2022/06/30 14:38:28;;;;;;;5.72;1.13;;;;;;;;;;6277765;22;20030;-71
2022/06/30 14:40:53;;;;;;;7.07;1.75;;;;;;;;;;6277904;22;20038;-72
2022/06/30 14:43:19;;;;;;;7.35;1.38;;;;;;;;;;6277048;22;20012;-72
2022/06/30 14:45:44;;;;;;;4.72;0.98;;;;;;;;;;6277316;22;20008;-71
2022/06/30 14:48:10;;;;;;;2.58;1.23;;;;;;;;;;6277866;22;20003;-71
2022/06/30 14:50:35;;;;;;;2.60;0.85;;;;;;;;;;6277398;22;20004;-72